Time;durP1;ratioP1;P1;durP2;ratioP2;P2;SDS_P1;SDS_P2;PMS_P1;PMS_P2;Temp;Humidity;BMP_temperature;BMP_pressure;BME280_temperature;BME280_humidity;BME280_pressure;Samples;Min_cycle;Max_cycle;Signal;HPM_P1;HPM_P2
2021/10/10 00:02:19;;;;;;;51.50;21.70;;;;;;;2.07;61.80;101248.55;116653;1200;22151;-60
2021/10/10 00:04:48;;;;;;;42.40;19.40;;;;;;;2.03;62.09;101243.94;116556;1200;137432;-60
2021/10/10 00:07:16;;;;;;;35.30;15.50;;;;;;;2.00;62.12;101247.73;116651;1200;22399;-60
2021/10/10 00:09:44;;;;;;;27.10;12.30;;;;;;;1.96;62.35;101241.31;116513;1200;137355;-60
2021/10/10 00:12:12;;;;;;;20.20;10.40;;;;;;;1.93;62.55;101240.48;116620;1200;22251;-60
2021/10/10 00:14:40;;;;;;;24.00;10.50;;;;;;;1.90;62.72;101242.14;116541;1200;137916;-60
2021/10/10 00:17:12;;;;;;;14.70;8.60;;;;;;;1.87;62.94;101242.28;116674;1199;22315;-60
2021/10/10 00:20:45;;;;;;;17.30;9.70;;;;;;;1.87;62.97;101236.70;110742;1217;545449;-60
2021/10/10 00:23:13;;;;;;;18.10;10.20;;;;;;;1.87;63.41;101239.93;111995;1199;22536;-60
2021/10/10 00:25:41;;;;;;;17.70;9.60;;;;;;;1.88;63.60;101238.57;111990;1199;23738;-60
2021/10/10 00:28:09;;;;;;;19.30;8.90;;;;;;;1.89;63.58;101242.77;116074;1203;138311;-61
2021/10/10 00:30:37;;;;;;;18.70;9.70;;;;;;;1.91;63.96;101239.52;116261;1204;23159;-61
2021/10/10 00:33:05;;;;;;;20.30;10.50;;;;;;;1.93;64.17;101242.30;116141;1204;137303;-61
2021/10/10 00:35:34;;;;;;;16.50;9.20;;;;;;;1.96;64.22;101240.98;116188;1205;22212;-61
2021/10/10 00:38:02;;;;;;;21.30;9.70;;;;;;;1.97;64.15;101240.45;116276;1204;22251;-61
2021/10/10 00:40:31;;;;;;;31.80;14.60;;;;;;;1.99;64.50;101241.30;116101;1204;138086;-61
2021/10/10 00:42:59;;;;;;;22.30;11.80;;;;;;;2.02;64.61;101240.30;116294;1204;22396;-61
2021/10/10 00:45:27;;;;;;;23.50;12.10;;;;;;;2.06;64.90;101236.62;116146;1205;137980;-61
2021/10/10 00:47:55;;;;;;;32.10;12.20;;;;;;;2.10;64.85;101237.79;116257;1204;22235;-61
2021/10/10 00:50:23;;;;;;;20.50;10.40;;;;;;;2.15;64.84;101233.59;116229;1205;22254;-61
2021/10/10 00:52:52;;;;;;;22.20;10.80;;;;;;;2.20;65.10;101232.81;116105;1204;137345;-61
2021/10/10 00:55:21;;;;;;;20.40;9.80;;;;;;;2.27;64.99;101231.95;116231;1204;22217;-61
2021/10/10 00:57:50;;;;;;;20.50;10.00;;;;;;;2.34;65.00;101228.60;116110;1204;137208;-61
2021/10/10 01:00:20;;;;;;;18.30;9.70;;;;;;;2.43;65.24;101226.29;116238;1204;22226;-61
2021/10/10 01:02:51;;;;;;;18.60;9.30;;;;;;;2.51;65.14;101224.99;116191;1204;137036;-61
2021/10/10 01:05:19;;;;;;;21.60;10.00;;;;;;;2.60;64.89;101225.52;116228;1204;22162;-61
2021/10/10 01:07:47;;;;;;;17.20;9.90;;;;;;;2.68;64.83;101233.24;116279;1204;23216;-61
2021/10/10 01:10:16;;;;;;;17.60;9.30;;;;;;;2.74;64.80;101233.22;116126;1205;137042;-61
2021/10/10 01:12:44;;;;;;;26.70;9.80;;;;;;;2.79;64.87;101234.13;116196;1204;22326;-61
2021/10/10 01:15:12;;;;;;;26.20;9.60;;;;;;;2.82;64.95;101231.29;116042;1204;137982;-61
2021/10/10 01:17:41;;;;;;;18.70;9.10;;;;;;;2.85;65.02;101230.09;116253;1205;23515;-61
2021/10/10 01:20:10;;;;;;;19.80;9.60;;;;;;;2.88;64.83;101225.48;116248;1204;22418;-61
2021/10/10 01:22:38;;;;;;;19.20;9.10;;;;;;;2.92;65.10;101229.17;116182;1204;137837;-61
2021/10/10 01:25:07;;;;;;;22.00;10.50;;;;;;;2.96;65.32;101226.29;116233;1204;22997;-61
2021/10/10 01:27:38;;;;;;;24.20;10.30;;;;;;;2.97;65.44;101223.80;116121;1205;137999;-61
2021/10/10 01:30:06;;;;;;;26.60;12.00;;;;;;;2.98;65.50;101225.62;116264;1204;22331;-61
2021/10/10 01:32:34;;;;;;;24.10;11.40;;;;;;;2.98;65.88;101222.63;116187;1204;22219;-61
2021/10/10 01:35:03;;;;;;;20.60;11.00;;;;;;;2.97;66.15;101222.92;116127;1204;138451;-61
2021/10/10 01:37:31;;;;;;;21.20;11.70;;;;;;;2.97;66.69;101222.86;116274;1204;22314;-62
2021/10/10 01:39:58;;;;;;;28.60;12.80;;;;;;;2.98;66.78;101219.53;116117;1194;137593;-62
2021/10/10 01:42:26;;;;;;;27.10;13.10;;;;;;;3.01;67.00;101222.13;116337;1204;22362;-62
2021/10/10 01:44:54;;;;;;;20.60;11.60;;;;;;;3.03;66.72;101217.54;116085;1204;138290;-62
2021/10/10 01:47:22;;;;;;;24.30;12.10;;;;;;;3.07;66.68;101219.63;116258;1199;23073;-62
2021/10/10 01:49:50;;;;;;;25.80;12.60;;;;;;;3.10;66.40;101217.85;116278;1204;22383;-62
2021/10/10 01:52:18;;;;;;;23.70;11.30;;;;;;;3.15;66.37;101214.13;116114;1204;137367;-62
2021/10/10 01:54:46;;;;;;;25.90;11.20;;;;;;;3.19;66.07;101214.52;116222;1205;23271;-63
2021/10/10 01:57:14;;;;;;;21.90;11.10;;;;;;;3.25;66.01;101215.90;116098;1204;138787;-62
2021/10/10 01:59:42;;;;;;;22.40;10.80;;;;;;;3.29;65.75;101209.54;116170;1204;23478;-62
2021/10/10 02:02:10;;;;;;;29.90;11.50;;;;;;;3.33;65.35;101213.52;116263;1204;22327;-61
2021/10/10 02:04:39;;;;;;;18.80;9.80;;;;;;;3.36;65.03;101211.80;116098;1204;137032;-62
2021/10/10 02:07:07;;;;;;;21.90;10.10;;;;;;;3.40;63.97;101210.10;116278;1204;23547;-61
2021/10/10 02:09:36;;;;;;;19.40;9.80;;;;;;;3.43;63.15;101212.90;116126;1204;137803;-61
2021/10/10 02:12:05;;;;;;;19.30;10.00;;;;;;;3.47;63.56;101211.73;116176;1204;22524;-61
2021/10/10 02:14:34;;;;;;;15.30;8.90;;;;;;;3.51;63.62;101212.70;116226;1204;22336;-62
2021/10/10 02:17:05;;;;;;;21.10;9.90;;;;;;;3.53;63.19;101212.53;116058;1204;137523;-62
2021/10/10 02:19:33;;;;;;;18.20;9.70;;;;;;;3.57;63.46;101214.59;116247;1204;22371;-61
2021/10/10 02:22:01;;;;;;;17.70;9.60;;;;;;;3.58;63.59;101216.67;116146;1205;136951;-61
2021/10/10 02:24:29;;;;;;;13.50;9.20;;;;;;;3.58;63.76;101216.31;116238;1204;22433;-61
2021/10/10 02:26:57;;;;;;;17.60;10.30;;;;;;;3.54;64.33;101219.95;116173;1204;138210;-61
2021/10/10 02:29:26;;;;;;;16.00;9.50;;;;;;;3.51;64.33;101220.31;116164;1204;22317;-61
2021/10/10 02:31:55;;;;;;;20.10;10.30;;;;;;;3.47;64.58;101218.39;116225;1204;22405;-61
2021/10/10 02:34:23;;;;;;;18.40;10.30;;;;;;;3.42;64.66;101223.43;116127;1205;136809;-61
2021/10/10 02:36:51;;;;;;;18.00;10.60;;;;;;;3.38;64.48;101219.99;116229;1204;22819;-61
2021/10/10 02:39:19;;;;;;;20.20;10.70;;;;;;;3.36;64.90;101222.48;116161;1205;137162;-61
2021/10/10 02:41:47;;;;;;;16.30;9.40;;;;;;;3.36;65.36;101222.17;116222;1204;22273;-61
2021/10/10 02:44:15;;;;;;;15.40;9.00;;;;;;;3.37;65.10;101224.06;116271;1204;22332;-61
2021/10/10 02:46:43;;;;;;;18.10;8.40;;;;;;;3.38;63.84;101223.05;116117;1204;137311;-61
2021/10/10 02:49:11;;;;;;;15.70;9.00;;;;;;;3.41;62.51;101223.73;116196;1205;22349;-61
2021/10/10 02:51:39;;;;;;;17.50;8.10;;;;;;;3.48;61.69;101226.41;116130;1204;136843;-61
2021/10/10 02:54:07;;;;;;;16.80;9.40;;;;;;;3.54;61.07;101220.81;116701;1201;22256;-61
2021/10/10 02:56:38;;;;;;;15.10;8.60;;;;;;;3.62;60.56;101221.77;116632;1201;22344;-61
2021/10/10 02:59:06;;;;;;;13.20;8.40;;;;;;;3.66;60.34;101219.27;116636;1201;136675;-61
2021/10/10 03:01:34;;;;;;;17.10;8.10;;;;;;;3.73;59.93;101220.19;116662;1200;22434;-61
2021/10/10 03:04:02;;;;;;;18.00;9.30;;;;;;;3.78;59.55;101218.54;116526;1201;136586;-61
2021/10/10 03:06:31;;;;;;;19.00;9.80;;;;;;;3.82;59.56;101218.40;116727;1200;22272;-61
2021/10/10 03:09:01;;;;;;;15.10;8.30;;;;;;;3.87;58.89;101216.31;116607;1201;138854;-61
2021/10/10 03:11:29;;;;;;;19.30;9.00;;;;;;;3.90;58.44;101214.05;116699;1200;22308;-61
2021/10/10 03:13:57;;;;;;;16.10;9.10;;;;;;;3.96;58.27;101212.96;116616;1201;22341;-61
2021/10/10 03:16:25;;;;;;;18.20;9.50;;;;;;;3.99;57.94;101212.02;116574;1200;136851;-61
2021/10/10 03:18:53;;;;;;;15.80;8.70;;;;;;;4.04;58.06;101214.29;116733;1200;23060;-61
2021/10/10 03:21:21;;;;;;;20.20;9.60;;;;;;;4.08;57.93;101209.92;116552;1200;137310;-61
2021/10/10 03:23:49;;;;;;;13.40;8.20;;;;;;;4.11;57.70;101208.50;116688;1201;22314;-61
2021/10/10 03:26:17;;;;;;;17.60;8.70;;;;;;;4.13;57.24;101205.16;116725;1199;23440;-61
2021/10/10 03:28:46;;;;;;;15.30;8.60;;;;;;;4.16;58.04;101209.56;116568;1200;137012;-61
2021/10/10 03:31:14;;;;;;;11.90;7.40;;;;;;;4.18;57.80;101204.09;116697;1200;22386;-61
2021/10/10 03:33:42;;;;;;;17.90;8.10;;;;;;;4.19;58.13;101206.46;116534;1200;137709;-61
2021/10/10 03:36:10;;;;;;;16.80;8.40;;;;;;;4.20;57.43;101206.86;116758;1200;23177;-61
2021/10/10 03:38:39;;;;;;;13.60;7.80;;;;;;;4.20;57.11;101200.05;116713;1200;22362;-61
2021/10/10 03:41:07;;;;;;;15.80;7.80;;;;;;;4.21;56.96;101197.79;116648;1200;136877;-61
2021/10/10 03:43:35;;;;;;;15.40;7.80;;;;;;;4.22;56.76;101195.48;116704;1200;22303;-61
2021/10/10 03:46:03;;;;;;;15.60;8.20;;;;;;;4.24;56.43;101196.94;116514;1200;137591;-61
2021/10/10 03:48:32;;;;;;;12.50;7.60;;;;;;;4.25;56.36;101196.00;116737;1200;22431;-61
2021/10/10 03:51:02;;;;;;;12.80;8.10;;;;;;;4.26;56.25;101191.73;116600;1200;137490;-61
2021/10/10 03:53:40;;;;;;;13.70;7.70;;;;;;;4.28;56.31;101191.27;116688;1200;23353;-61
2021/10/10 03:56:08;;;;;;;13.90;7.50;;;;;;;4.29;56.30;101188.05;116729;1200;22410;-61
2021/10/10 03:58:38;;;;;;;10.70;6.80;;;;;;;4.31;56.20;101188.96;116580;1201;136950;-61
2021/10/10 04:01:06;;;;;;;14.20;7.50;;;;;;;4.31;56.04;101186.19;116638;1200;22311;-61
2021/10/10 04:03:34;;;;;;;13.60;7.40;;;;;;;4.35;55.93;101187.23;116553;1200;137199;-61
2021/10/10 04:06:03;;;;;;;16.90;7.50;;;;;;;4.36;55.95;101185.81;115021;1200;22442;-61
2021/10/10 04:08:32;;;;;;;16.50;8.40;;;;;;;4.38;55.93;101183.58;116707;1200;22233;-61
2021/10/10 04:11:00;;;;;;;12.90;6.90;;;;;;;4.39;55.72;101179.56;116588;1200;137082;-61
2021/10/10 04:13:28;;;;;;;13.00;7.40;;;;;;;4.38;55.71;101178.72;116638;1200;22386;-61
2021/10/10 04:15:56;;;;;;;19.10;7.40;;;;;;;4.39;55.78;101182.39;116571;1200;137451;-61
2021/10/10 04:18:24;;;;;;;12.30;7.20;;;;;;;4.39;55.61;101176.64;116604;1199;22392;-61
2021/10/10 04:20:52;;;;;;;19.00;6.70;;;;;;;4.40;55.70;101179.19;116539;1201;136875;-61
2021/10/10 04:23:20;;;;;;;12.80;7.00;;;;;;;4.42;55.96;101178.67;116710;1201;22364;-62
2021/10/10 04:25:48;;;;;;;22.00;8.90;;;;;;;4.43;55.68;101180.11;116656;1200;22260;-61
2021/10/10 04:28:16;;;;;;;16.40;7.60;;;;;;;4.44;55.67;101178.97;116591;1200;137472;-61
2021/10/10 04:30:44;;;;;;;16.20;7.40;;;;;;;4.45;55.86;101177.05;116678;1200;22376;-61
2021/10/10 04:33:12;;;;;;;11.70;6.40;;;;;;;4.45;55.72;101179.91;116532;1193;137158;-61
2021/10/10 04:35:41;;;;;;;11.00;6.90;;;;;;;4.44;55.69;101183.06;116673;1200;23331;-61
2021/10/10 04:38:12;;;;;;;15.40;7.60;;;;;;;4.43;55.91;101182.79;116697;1200;22345;-61
2021/10/10 04:40:40;;;;;;;15.10;7.20;;;;;;;4.43;55.88;101185.21;116535;1200;137005;-61
2021/10/10 04:43:08;;;;;;;11.30;6.90;;;;;;;4.41;56.10;101182.48;116668;1201;23157;-61
2021/10/10 04:45:37;;;;;;;16.70;6.70;;;;;;;4.41;56.29;101181.78;116602;1200;137155;-61
2021/10/10 04:48:06;;;;;;;14.10;8.70;;;;;;;4.42;56.53;101185.12;116711;1200;22282;-61
2021/10/10 04:50:34;;;;;;;15.30;7.40;;;;;;;4.43;56.64;101187.14;116653;1200;22325;-61
2021/10/10 04:53:02;;;;;;;16.70;8.50;;;;;;;4.45;56.65;101183.55;116501;1201;136783;-61
2021/10/10 04:55:30;;;;;;;12.20;7.60;;;;;;;4.46;56.67;101188.73;116668;1201;22305;-61
2021/10/10 04:57:58;;;;;;;13.80;7.80;;;;;;;4.48;56.66;101187.88;116509;1200;137082;-61
2021/10/10 05:00:27;;;;;;;13.70;7.50;;;;;;;4.49;56.60;101186.04;116675;1200;22309;-61
2021/10/10 05:02:55;;;;;;;12.70;7.30;;;;;;;4.51;56.42;101187.31;116530;1200;137111;-61
2021/10/10 05:05:24;;;;;;;15.00;8.00;;;;;;;4.52;56.47;101186.05;116658;1200;22323;-61
2021/10/10 05:07:52;;;;;;;14.80;7.30;;;;;;;4.53;56.52;101185.21;116640;1200;22246;-61
2021/10/10 05:10:20;;;;;;;12.90;7.70;;;;;;;4.55;56.68;101189.52;116398;1200;137315;-61
2021/10/10 05:12:48;;;;;;;12.00;7.40;;;;;;;4.56;56.63;101189.92;116638;1200;22266;-61
2021/10/10 05:15:16;;;;;;;19.50;7.00;;;;;;;4.57;56.94;101194.11;116593;1200;137231;-61
2021/10/10 05:17:45;;;;;;;14.50;6.50;;;;;;;4.59;56.77;101191.94;116742;1200;22307;-61
2021/10/10 05:20:13;;;;;;;11.30;6.80;;;;;;;4.60;57.03;101195.37;116668;1200;22327;-61
2021/10/10 05:22:42;;;;;;;15.40;6.80;;;;;;;4.62;57.13;101195.34;116529;1200;137015;-61
2021/10/10 05:25:11;;;;;;;12.00;6.40;;;;;;;4.63;57.06;101196.81;116654;1200;22221;-61
2021/10/10 05:27:39;;;;;;;13.10;7.30;;;;;;;4.65;56.97;101197.17;116546;1200;136782;-61
2021/10/10 05:30:08;;;;;;;12.20;6.60;;;;;;;4.68;56.90;101200.14;116695;1200;23283;-61
2021/10/10 05:32:36;;;;;;;12.30;7.60;;;;;;;4.70;56.58;101202.36;116631;1200;22250;-61
2021/10/10 05:35:04;;;;;;;18.90;8.50;;;;;;;4.72;57.03;101199.54;116556;1200;137406;-61
2021/10/10 05:37:33;;;;;;;14.70;7.90;;;;;;;4.75;56.80;101203.33;116656;1193;22317;-60
2021/10/10 05:40:01;;;;;;;14.90;9.30;;;;;;;4.79;56.66;101205.76;116618;1200;137889;-61
2021/10/10 05:42:32;;;;;;;15.30;8.20;;;;;;;4.84;56.73;101208.07;116668;1194;22273;-61
2021/10/10 05:45:00;;;;;;;14.50;8.30;;;;;;;4.89;56.94;101210.06;116572;1200;137236;-61
2021/10/10 05:47:29;;;;;;;10.70;7.60;;;;;;;4.94;56.90;101208.09;116692;1200;22322;-61
2021/10/10 05:49:57;;;;;;;18.60;8.50;;;;;;;4.98;56.95;101208.16;116658;1200;22335;-61
2021/10/10 05:52:27;;;;;;;21.80;8.40;;;;;;;5.01;56.80;101206.23;116601;1200;136975;-61
2021/10/10 05:54:55;;;;;;;13.90;7.10;;;;;;;5.04;56.94;101206.06;116660;1200;22217;-60
2021/10/10 05:57:42;;;;;;;15.40;7.20;;;;;;;5.08;56.85;101210.04;116557;1201;137684;-62
2021/10/10 06:00:11;;;;;;;13.00;7.20;;;;;;;5.13;56.80;101210.79;116620;1200;22146;-60
2021/10/10 06:02:43;;;;;;;17.10;8.60;;;;;;;5.15;56.89;101210.88;116708;1200;22205;-61
2021/10/10 06:05:12;;;;;;;16.10;7.70;;;;;;;5.18;56.52;101212.38;116512;1200;136873;-62
2021/10/10 06:07:40;;;;;;;17.10;8.80;;;;;;;5.22;56.46;101213.30;116694;1200;23357;-62
2021/10/10 06:10:13;;;;;;;14.50;7.70;;;;;;;5.26;56.47;101214.13;116584;1200;136992;-61
2021/10/10 06:12:41;;;;;;;16.40;7.80;;;;;;;5.29;56.71;101212.30;116662;1200;22261;-61
2021/10/10 06:15:10;;;;;;;16.90;7.20;;;;;;;5.33;56.30;101216.13;116620;1200;137620;-56
2021/10/10 06:17:39;;;;;;;11.80;6.90;;;;;;;5.36;56.32;101216.66;116746;1200;23438;-61
2021/10/10 06:20:07;;;;;;;13.30;7.40;;;;;;;5.39;55.90;101216.17;116706;1200;22959;-61
2021/10/10 06:22:35;;;;;;;17.10;7.00;;;;;;;5.42;56.02;101215.64;116532;1200;137979;-61
2021/10/10 06:25:04;;;;;;;17.10;10.20;;;;;;;5.46;56.08;101217.80;116691;1200;22357;-61
2021/10/10 06:27:32;;;;;;;17.90;8.80;;;;;;;5.50;56.00;101214.94;116522;1200;137593;-61
2021/10/10 06:30:00;;;;;;;18.00;8.90;;;;;;;5.54;56.09;101214.64;116714;1197;23178;-61
2021/10/10 06:32:28;;;;;;;15.20;8.20;;;;;;;5.60;55.39;101214.20;116623;1200;22356;-61
2021/10/10 06:34:57;;;;;;;18.60;8.70;;;;;;;5.65;55.36;101216.95;116612;1200;138127;-62
2021/10/10 06:37:25;;;;;;;13.70;7.90;;;;;;;5.69;55.28;101215.20;116668;1200;22962;-62
2021/10/10 06:39:54;;;;;;;15.00;7.80;;;;;;;5.74;54.76;101213.95;116514;1200;137902;-61
2021/10/10 06:42:22;;;;;;;14.80;8.30;;;;;;;5.77;54.12;101212.91;116684;1200;22181;-61
2021/10/10 06:44:50;;;;;;;15.30;8.50;;;;;;;5.82;54.45;101210.77;116572;1200;137054;-61
2021/10/10 06:47:21;;;;;;;15.50;8.00;;;;;;;5.87;54.48;101212.85;116734;1200;22385;-61
2021/10/10 06:49:49;;;;;;;16.90;8.00;;;;;;;5.92;54.35;101216.37;116687;1193;24392;-61
2021/10/10 06:52:17;;;;;;;23.50;9.40;;;;;;;5.96;54.11;101216.35;116651;1200;137979;-61
2021/10/10 06:54:45;;;;;;;20.50;9.50;;;;;;;6.01;54.03;101213.27;116661;1200;23088;-61
2021/10/10 06:57:12;;;;;;;16.30;10.10;;;;;;;6.06;53.75;101211.52;116683;1193;137879;-61
2021/10/10 06:59:40;;;;;;;16.20;9.40;;;;;;;6.11;53.82;101209.05;116664;1200;22303;-61
2021/10/10 07:02:10;;;;;;;21.20;8.80;;;;;;;6.18;53.74;101207.49;116746;1200;22936;-61
2021/10/10 07:04:39;;;;;;;19.30;8.70;;;;;;;6.24;53.69;101208.64;116567;1196;137132;-62
2021/10/10 07:07:07;;;;;;;17.40;8.40;;;;;;;6.31;53.22;101209.98;116683;1200;22351;-61
2021/10/10 07:09:36;;;;;;;14.20;7.90;;;;;;;6.37;52.73;101212.51;116619;1200;137970;-62
2021/10/10 07:12:04;;;;;;;14.60;7.20;;;;;;;6.43;52.24;101214.27;116746;1200;22342;-61
2021/10/10 07:14:32;;;;;;;17.50;7.70;;;;;;;6.49;52.49;101215.88;116735;1200;22871;-61
2021/10/10 07:17:02;;;;;;;13.80;7.10;;;;;;;6.55;51.91;101215.04;116599;1200;137029;-61
2021/10/10 07:19:42;;;;;;;14.40;7.70;;;;;;;6.62;52.10;101212.48;116771;1200;22334;-61
2021/10/10 07:25:13;;;;;;;17.00;7.30;;;;;;;6.76;51.60;101213.60;116478;1201;22310;-60
2021/10/10 07:27:43;;;;;;;18.30;7.70;;;;;;;6.82;51.49;101214.65;116342;1191;137312;-60
2021/10/10 07:30:12;;;;;;;16.90;7.90;;;;;;;6.87;51.43;101208.25;116486;1202;23109;-60
2021/10/10 07:32:40;;;;;;;18.60;7.40;;;;;;;6.93;51.59;101212.16;116523;1202;22281;-60
2021/10/10 07:35:09;;;;;;;18.80;8.50;;;;;;;7.00;51.60;101210.18;116297;1202;138337;-60
2021/10/10 07:37:38;;;;;;;18.10;8.40;;;;;;;7.09;51.57;101211.39;116567;1202;23313;-60
2021/10/10 07:40:09;;;;;;;13.50;8.00;;;;;;;7.18;51.06;101209.15;116379;1202;137502;-60
2021/10/10 07:42:37;;;;;;;23.10;8.90;;;;;;;7.25;50.79;101208.25;116562;1201;22313;-60
2021/10/10 07:45:11;;;;;;;16.50;7.10;;;;;;;7.33;50.64;101206.13;116380;1202;137114;-60
2021/10/10 07:50:10;;;;;;;16.40;8.50;;;;;;;7.49;49.64;101202.79;116495;1202;22379;-60
2021/10/10 07:52:38;;;;;;;20.50;8.90;;;;;;;7.57;49.51;101201.42;116407;1202;137189;-60
2021/10/10 07:55:07;;;;;;;19.60;8.50;;;;;;;7.67;49.44;101201.20;116529;1201;22260;-60
2021/10/10 07:57:36;;;;;;;27.60;9.50;;;;;;;7.76;49.76;101197.52;116373;1200;137283;-60
2021/10/10 08:00:05;;;;;;;20.00;9.60;;;;;;;7.86;49.91;101203.04;116683;1200;22240;-61
2021/10/10 08:03:07;;;;;;;29.60;10.30;;;;;;;7.96;49.58;101198.33;116723;1200;22291;-61
2021/10/10 08:05:40;;;;;;;23.50;10.40;;;;;;;8.08;49.82;101203.38;116420;1202;22265;-60
2021/10/10 08:08:08;;;;;;;27.20;9.30;;;;;;;8.19;49.31;101204.16;116521;1202;22261;-60
2021/10/10 08:10:37;;;;;;;24.60;9.20;;;;;;;8.28;48.05;101202.05;116455;1202;137053;-61
2021/10/10 08:13:06;;;;;;;27.50;10.40;;;;;;;8.37;47.33;101202.02;116503;1202;22340;-60
2021/10/10 08:15:34;;;;;;;27.50;9.10;;;;;;;8.45;47.57;101202.85;116401;1202;139052;-60
2021/10/10 08:18:02;;;;;;;22.10;9.80;;;;;;;8.54;47.55;101206.63;116574;1201;22308;-60
2021/10/10 08:20:31;;;;;;;24.20;10.60;;;;;;;8.61;47.68;101207.42;116566;1197;22323;-59
2021/10/10 08:23:00;;;;;;;25.70;9.40;;;;;;;8.69;47.10;101209.02;116270;1202;136999;-59
2021/10/10 08:25:32;;;;;;;24.60;8.50;;;;;;;8.75;46.96;101210.27;116498;1202;22989;-60
2021/10/10 08:28:00;;;;;;;26.20;9.90;;;;;;;8.81;45.92;101210.40;116409;1201;137292;-59
2021/10/10 08:30:29;;;;;;;25.00;9.40;;;;;;;8.83;46.05;101208.52;116326;1202;22258;-60
2021/10/10 08:32:58;;;;;;;19.90;9.80;;;;;;;8.86;45.56;101208.45;116591;1187;23128;-60
2021/10/10 08:35:26;;;;;;;33.40;12.30;;;;;;;8.86;45.87;101210.16;116392;1202;137084;-60
2021/10/10 08:37:54;;;;;;;27.30;10.20;;;;;;;8.89;45.92;101210.63;116662;1201;22251;-60
2021/10/10 08:40:22;;;;;;;25.70;9.60;;;;;;;8.89;45.60;101208.96;116411;1202;137188;-60
2021/10/10 08:42:52;;;;;;;34.90;14.10;;;;;;;8.90;46.31;101210.98;116691;1200;22317;-60
2021/10/10 08:45:24;;;;;;;61.70;20.20;;;;;;;8.95;46.57;101213.61;116630;1200;137252;-60
2021/10/10 08:47:52;;;;;;;21.80;10.70;;;;;;;9.02;46.57;101210.58;116739;1200;22299;-60
2021/10/10 08:50:27;;;;;;;20.90;10.40;;;;;;;9.10;45.76;101207.56;116724;1200;22256;-60
2021/10/10 08:52:58;;;;;;;25.70;11.10;;;;;;;9.11;45.83;101205.55;116584;1200;138290;-60
2021/10/10 08:55:28;;;;;;;19.30;10.60;;;;;;;9.13;46.01;101208.33;116720;1200;22322;-60
2021/10/10 08:57:56;;;;;;;25.00;9.80;;;;;;;9.14;45.58;101207.16;116594;1200;138459;-60
2021/10/10 09:03:00;;;;;;;24.90;9.30;;;;;;;9.15;46.17;101207.61;116680;1200;22208;-60
2021/10/10 09:05:46;;;;;;;25.10;9.20;;;;;;;9.20;46.24;101204.75;116503;1200;136960;-60
2021/10/10 09:08:14;;;;;;;23.80;10.50;;;;;;;9.26;46.79;101203.31;116631;1196;22366;-61
2021/10/10 09:10:56;;;;;;;22.00;10.30;;;;;;;9.35;46.61;101204.00;116511;1187;137408;-60
2021/10/10 09:13:31;;;;;;;30.00;11.00;;;;;;;9.43;46.77;101197.55;116657;1200;22426;-60
2021/10/10 09:16:02;;;;;;;27.50;11.90;;;;;;;9.51;46.60;101195.12;116571;1200;138058;-59
2021/10/10 09:18:32;;;;;;;25.10;10.70;;;;;;;9.60;46.33;101190.22;116672;1200;22649;-59
2021/10/10 09:21:20;;;;;;;27.00;10.60;;;;;;;9.67;46.31;101189.41;116583;1201;22350;-60
2021/10/10 09:23:49;;;;;;;27.80;10.40;;;;;;;9.80;46.43;101185.41;116630;1200;137119;-60
2021/10/10 09:26:18;;;;;;;27.30;11.10;;;;;;;9.92;46.47;101180.13;116689;1200;22874;-60
2021/10/10 09:28:46;;;;;;;23.10;9.70;;;;;;;10.01;46.41;101179.88;116514;1200;137796;-60
2021/10/10 09:31:15;;;;;;;22.00;10.10;;;;;;;10.11;46.05;101179.34;116703;1200;23004;-60
2021/10/10 09:33:49;;;;;;;21.50;10.10;;;;;;;10.19;45.94;101175.02;116562;1200;138113;-60
2021/10/10 09:36:26;;;;;;;29.60;11.50;;;;;;;10.24;45.86;101173.42;116703;1200;23187;-60
2021/10/10 09:44:19;;;;;;;23.30;9.70;;;;;;;10.46;45.68;101163.77;116720;1200;22433;-60
2021/10/10 09:46:48;;;;;;;22.50;9.40;;;;;;;10.53;45.27;101165.12;116633;1200;138816;-60
2021/10/10 09:49:37;;;;;;;24.60;9.70;;;;;;;10.60;44.85;101165.76;116621;1200;22231;-62
2021/10/10 09:52:07;;;;;;;23.60;9.50;;;;;;;10.70;44.73;101161.45;116586;1200;137594;-62
2021/10/10 09:54:57;;;;;;;25.60;9.60;;;;;;;10.77;44.66;101159.99;116699;1200;22258;-62
2021/10/10 09:57:27;;;;;;;18.40;8.50;;;;;;;10.81;43.51;101158.91;116684;1200;22262;-62
2021/10/10 09:59:55;;;;;;;25.50;9.30;;;;;;;10.80;43.32;101159.27;116581;1200;137130;-62
2021/10/10 10:02:39;;;;;;;24.80;9.90;;;;;;;10.78;43.72;101161.88;116740;1200;22308;-60
2021/10/10 10:05:07;;;;;;;18.20;8.80;;;;;;;10.79;43.78;101162.46;116523;1193;137293;-62
2021/10/10 10:07:36;;;;;;;18.30;8.50;;;;;;;10.83;43.66;101162.80;116713;1200;22362;-60
2021/10/10 10:10:08;;;;;;;23.80;8.30;;;;;;;10.86;43.49;101163.53;116578;1200;137834;-60
2021/10/10 10:12:36;;;;;;;19.80;7.80;;;;;;;10.92;43.68;101156.76;116625;1200;22335;-61
2021/10/10 10:15:07;;;;;;;22.20;9.00;;;;;;;11.01;43.81;101157.10;116677;1200;22286;-60
2021/10/10 10:17:39;;;;;;;16.90;7.60;;;;;;;11.09;43.37;101151.38;116481;1200;137514;-60
2021/10/10 10:20:08;;;;;;;14.80;7.80;;;;;;;11.14;43.16;101151.16;116688;1200;22552;-60
2021/10/10 10:22:36;;;;;;;16.10;6.90;;;;;;;11.19;42.81;101151.39;116554;1200;142118;-60
2021/10/10 10:25:06;;;;;;;20.70;7.60;;;;;;;11.23;43.09;101144.72;116688;1200;22266;-60
2021/10/10 10:27:35;;;;;;;14.30;6.90;;;;;;;11.27;42.53;101143.08;116623;1201;22163;-61
2021/10/10 10:30:04;;;;;;;12.60;6.20;;;;;;;11.29;42.76;101140.92;116531;1200;137131;-60
2021/10/10 10:32:32;;;;;;;14.60;8.00;;;;;;;11.33;42.62;101138.55;116721;1200;22351;-60
2021/10/10 10:35:11;;;;;;;15.20;6.30;;;;;;;11.38;42.18;101132.77;116637;1200;137905;-60
2021/10/10 10:37:50;;;;;;;13.00;5.20;;;;;;;11.43;42.20;101127.61;116725;1200;22256;-60
2021/10/10 10:40:26;;;;;;;11.30;5.30;;;;;;;11.51;41.73;101121.64;116609;1200;137588;-61
2021/10/10 10:42:55;;;;;;;10.80;5.60;;;;;;;11.57;41.30;101120.76;116733;1200;23143;-61
2021/10/10 10:45:34;;;;;;;14.30;6.80;;;;;;;11.64;41.27;101122.39;116651;1200;22323;-62
2021/10/10 10:48:07;;;;;;;16.80;7.30;;;;;;;11.77;40.98;101117.00;116608;1200;137068;-61
2021/10/10 10:50:40;;;;;;;18.40;10.80;;;;;;;11.92;40.96;101110.59;116748;1200;22355;-61
2021/10/10 10:53:13;;;;;;;18.80;11.90;;;;;;;12.06;39.50;101107.58;116531;1200;138033;-61
2021/10/10 10:55:43;;;;;;;12.00;5.10;;;;;;;12.17;39.26;101106.00;116753;1200;22294;-62
2021/10/10 10:58:11;;;;;;;10.10;5.10;;;;;;;12.30;38.30;101108.23;116576;1200;137441;-61
2021/10/10 11:00:40;;;;;;;9.30;4.70;;;;;;;12.39;37.93;101108.06;116666;1200;22267;-61
2021/10/10 11:03:17;;;;;;;15.20;6.70;;;;;;;12.45;38.02;101103.56;116699;1200;22486;-62
2021/10/10 11:05:50;;;;;;;7.10;4.50;;;;;;;12.50;37.92;101104.85;116572;1200;138897;-61
2021/10/10 11:08:21;;;;;;;9.90;5.50;;;;;;;12.52;37.59;101106.66;116694;1200;22616;-61
2021/10/10 11:11:21;;;;;;;10.30;5.30;;;;;;;12.53;37.80;101103.54;116614;1200;137415;-61
2021/10/10 11:13:57;;;;;;;14.00;7.60;;;;;;;12.57;37.58;101100.27;116612;1200;22174;-61
2021/10/10 11:16:25;;;;;;;8.80;5.00;;;;;;;12.62;37.91;101097.84;114405;1200;137522;-60
2021/10/10 11:19:01;;;;;;;13.10;6.60;;;;;;;12.66;37.51;101089.21;116707;1200;23285;-61
2021/10/10 11:21:30;;;;;;;11.10;6.70;;;;;;;12.72;37.87;101092.77;116697;1200;23472;-61
2021/10/10 11:23:59;;;;;;;11.30;4.70;;;;;;;12.79;37.66;101090.91;116620;1200;137537;-61
2021/10/10 11:26:28;;;;;;;7.30;4.40;;;;;;;12.85;36.94;101089.15;116686;1200;22269;-61
2021/10/10 11:28:57;;;;;;;33.60;9.30;;;;;;;12.89;36.41;101083.95;116532;1200;137438;-61
2021/10/10 11:31:28;;;;;;;10.80;4.50;;;;;;;12.94;35.91;101083.59;116719;1200;22236;-61
2021/10/10 11:33:59;;;;;;;10.60;3.80;;;;;;;13.02;35.39;101084.59;116536;1199;139105;-63
2021/10/10 11:36:39;;;;;;;7.40;4.20;;;;;;;13.08;34.87;101081.05;116740;1193;23202;-62
2021/10/10 11:39:14;;;;;;;8.50;4.70;;;;;;;13.14;35.01;101079.85;116772;1200;22303;-62